KOKC/OKC METAR and TAF weather

Enter ICAO airport designator
Station Type Date Time Source
KOKC METAR 2020/03/28 06:52 UTC NOAA

KOKC 280652Z 18010KT 9SM SCT150 BKN180 OVC220 20/18 A2960 RMK AO2 SLP010 T02000183


Station Type Date Time Source
KOKC Decoded METAR 2020/03/28 06:52 UTC NOAA

WILL ROGERS WORLD AIRPORT, OK, United States (KOKC) 35-23N 97-36W 390M
Mar 28, 2020 - 02:52 AM EDT / 2020.03.28 0652 UTC
Wind: from the S (180 degrees) at 12 MPH (10 KT):0
Visibility: 9 mile(s):0
Sky conditions: overcast
Temperature: 68.0 F (20.0 C)
Dew Point: 64.9 F (18.3 C)
Relative Humidity: 89%
Pressure (altimeter): 29.6 in. Hg (1002 hPa)
ob: KOKC 280652Z 18010KT 9SM SCT150 BKN180 OVC220 20/18 A2960 RMK AO2 SLP010 T02000183
cycle: 7

Station Type Date Time Source
KOKC TAF 2020/03/28 06:22 UTC NOAA

TAF KOKC 280520Z 2806/2906 19014KT P6SM OVC200 WS020/22045KT
TEMPO 2808/2812 -SHRA SCT025 OVC050
FM281200 21016G22KT P6SM SCT200
FM281600 25021G29KT P6SM SCT080
FM290000 32014KT P6SM SKC

Example: see airport list